Time;durP1;ratioP1;P1;durP2;ratioP2;P2;SDS_P1;SDS_P2;PMS_P1;PMS_P2;Temp;Humidity;BMP_temperature;BMP_pressure;BME280_temperature;BME280_humidity;BME280_pressure;Samples;Min_cycle;Max_cycle;Signal;HPM_P1;HPM_P2
2022/10/15 00:00:21;;;;;;;19.67;17.57;;;16.60;88.30;;;19.29;62.90;100608.69;5035062;28;20187;-53
2022/10/15 00:02:49;;;;;;;20.03;16.60;;;16.60;88.40;;;19.27;62.72;100611.59;5034667;28;20230;-53
2022/10/15 00:05:16;;;;;;;20.13;17.97;;;16.60;88.30;;;19.26;62.69;100614.50;5033800;28;20324;-53
2022/10/15 00:07:44;;;;;;;20.10;17.93;;;16.50;88.50;;;19.23;62.64;100609.63;5034621;28;20236;-55
2022/10/15 00:10:11;;;;;;;21.67;17.53;;;16.50;88.40;;;19.23;62.93;100609.63;5032776;28;20191;-55
2022/10/15 00:12:39;;;;;;;24.27;20.53;;;16.50;88.40;;;19.21;63.04;100611.72;5031958;28;20702;-53
2022/10/15 00:15:09;;;;;;;22.83;19.73;;;16.50;88.40;;;19.21;62.65;100611.72;5034304;28;20199;-55
2022/10/15 00:17:38;;;;;;;21.57;18.30;;;16.50;88.30;;;19.20;62.92;100612.75;5025312;28;20248;-54
2022/10/15 00:20:09;;;;;;;23.80;20.27;;;16.50;88.30;;;19.18;62.59;100612.19;5014490;28;20318;-54
2022/10/15 00:22:38;;;;;;;18.00;16.13;;;16.40;88.40;;;19.18;62.99;100604.19;5031308;28;20219;-55
2022/10/15 00:25:07;;;;;;;20.40;18.27;;;16.40;88.30;;;19.16;62.76;100604.41;5034330;28;20199;-54
2022/10/15 00:27:36;;;;;;;23.30;20.00;;;16.40;88.20;;;19.12;62.54;100605.09;5017078;28;20222;-56
2022/10/15 00:30:05;;;;;;;23.67;20.83;;;16.40;87.90;;;19.02;62.30;100603.03;5032852;28;20248;-55
2022/10/15 00:32:33;;;;;;;22.10;19.60;;;16.40;87.40;;;18.91;62.42;100602.00;5033222;28;20211;-52
2022/10/15 00:35:02;;;;;;;23.53;19.97;;;16.30;87.20;;;18.82;62.65;100607.91;5034464;28;20194;-55
2022/10/15 00:37:29;;;;;;;22.13;19.37;;;16.30;87.20;;;18.76;63.08;100601.63;5034013;28;20693;-53
2022/10/15 00:39:56;;;;;;;23.17;20.43;;;16.30;87.50;;;18.71;62.95;100601.50;5033826;28;20198;-55
2022/10/15 00:42:24;;;;;;;23.57;19.43;;;16.20;87.50;;;18.65;62.90;100606.97;5033805;28;20710;-54
2022/10/15 00:44:55;;;;;;;24.37;21.17;;;16.20;87.60;;;18.60;63.30;100599.66;5021614;28;20218;-54
2022/10/15 00:47:29;;;;;;;22.83;19.73;;;16.10;87.70;;;18.55;63.28;100607.53;5026141;28;20216;-56
2022/10/15 00:50:07;;;;;;;26.20;21.70;;;16.10;87.70;;;18.48;63.36;100603.34;5016266;28;20199;-54
2022/10/15 00:52:42;;;;;;;23.00;19.60;;;16.00;87.90;;;18.45;63.30;100606.44;5033564;28;20276;-56
2022/10/15 00:55:15;;;;;;;26.53;22.07;;;16.00;87.90;;;18.42;63.60;100596.25;5033809;28;20189;-54
2022/10/15 00:57:46;;;;;;;23.23;20.73;;;15.90;88.20;;;18.39;63.85;100605.50;5033655;28;20198;-56
2022/10/15 01:00:16;;;;;;;25.53;22.03;;;15.90;88.30;;;18.31;63.84;100608.50;5031530;28;20187;-54
2022/10/15 01:02:45;;;;;;;25.83;22.43;;;15.80;88.30;;;18.25;64.04;100606.75;5029159;28;20233;-56
2022/10/15 01:05:17;;;;;;;24.63;21.93;;;15.80;88.40;;;18.19;64.10;100600.47;5033650;28;20563;-54
2022/10/15 01:07:44;;;;;;;24.13;21.07;;;15.80;88.60;;;18.12;64.34;100596.28;5033296;28;20226;-54
2022/10/15 01:10:12;;;;;;;24.77;21.77;;;15.70;88.70;;;18.10;64.49;100603.69;5032962;28;20245;-57
2022/10/15 01:12:56;;;;;;;27.43;23.43;;;15.70;88.80;;;18.05;64.56;100608.88;5032946;28;20269;-52
2022/10/15 01:15:32;;;;;;;27.13;23.17;;;15.60;89.70;;;18.02;64.46;100604.81;5033393;28;20195;-54
2022/10/15 01:18:09;;;;;;;26.77;23.67;;;15.60;89.10;;;17.98;64.69;100602.81;5031050;28;20535;-54
2022/10/15 01:20:51;;;;;;;30.27;24.93;;;15.50;89.10;;;17.92;64.67;100607.22;5013908;28;20213;-54
2022/10/15 01:24:36;;;;;;;30.13;24.70;;;15.50;90.00;;;17.81;64.93;100604.47;5013459;28;20215;-56
2022/10/15 01:27:25;;;;;;;31.90;25.83;;;15.50;89.40;;;17.80;65.06;100608.19;5013576;28;20195;-53
2022/10/15 01:30:20;;;;;;;29.30;24.30;;;15.40;89.40;;;17.82;64.96;100603.47;5013792;28;20613;-55
2022/10/15 01:33:33;;;;;;;33.27;24.80;;;15.40;89.70;;;17.90;64.92;100603.16;5007029;28;20226;-53
2022/10/15 01:36:16;;;;;;;25.07;19.67;;;15.40;89.80;;;18.02;64.79;100604.00;4954091;28;20209;-56
2022/10/15 01:38:54;;;;;;;33.87;24.90;;;15.40;90.00;;;18.12;64.32;100597.09;4952584;29;20205;-55
2022/10/15 01:41:36;;;;;;;32.83;25.30;;;15.40;90.10;;;18.17;64.21;100599.06;4993867;28;20206;-55
2022/10/15 01:44:10;;;;;;;33.37;25.77;;;15.40;90.00;;;18.20;64.11;100601.28;5027191;28;20264;-56
2022/10/15 01:46:46;;;;;;;28.03;21.40;;;15.50;89.90;;;18.24;64.28;100597.13;5032927;28;20308;-53
2022/10/15 01:49:24;;;;;;;35.40;27.07;;;15.50;89.80;;;18.25;63.66;100591.59;5020392;28;20226;-55
2022/10/15 01:51:54;;;;;;;35.27;26.87;;;15.50;89.60;;;18.28;63.70;100584.94;5030281;28;20240;-55
2022/10/15 01:54:26;;;;;;;34.47;27.00;;;15.50;89.60;;;18.31;63.68;100581.84;5023233;28;20222;-56
2022/10/15 01:56:57;;;;;;;36.13;26.40;;;15.50;89.50;;;18.33;63.51;100582.41;5013767;28;20257;-54
2022/10/15 01:59:30;;;;;;;39.17;27.53;;;15.50;89.40;;;18.27;63.68;100588.69;5012897;28;20192;-54
2022/10/15 02:01:58;;;;;;;34.47;25.47;;;15.60;89.10;;;18.25;63.68;100575.59;5017708;28;20191;-54
2022/10/15 02:04:28;;;;;;;33.77;24.90;;;15.60;89.10;;;18.29;63.66;100575.94;5032556;28;20187;-57
2022/10/15 02:07:03;;;;;;;39.17;28.63;;;15.60;89.30;;;18.32;63.71;100580.00;5032990;28;20651;-56
2022/10/15 02:09:43;;;;;;;38.57;26.97;;;15.60;89.40;;;18.36;63.47;100570.50;5032603;28;20198;-54
2022/10/15 02:12:29;;;;;;;36.10;26.33;;;15.60;89.30;;;18.39;63.50;100570.84;5021527;28;20222;-56
2022/10/15 02:15:05;;;;;;;32.63;23.90;;;15.60;89.30;;;18.45;63.29;100569.09;5029192;28;20198;-55
2022/10/15 02:17:44;;;;;;;38.27;29.00;;;15.60;89.30;;;18.37;63.22;100570.28;5030873;28;20206;-55
2022/10/15 02:20:18;;;;;;;38.97;27.53;;;15.70;88.70;;;18.33;63.22;100571.75;5032783;28;20244;-54
2022/10/15 02:22:54;;;;;;;36.27;25.80;;;15.70;88.50;;;18.36;63.49;100571.31;5031784;28;20206;-54
2022/10/15 02:25:24;;;;;;;37.73;27.93;;;15.70;88.60;;;18.40;62.98;100567.13;5033008;28;20213;-54
2022/10/15 02:27:56;;;;;;;39.83;27.70;;;15.70;88.80;;;18.42;63.22;100567.75;5032872;28;20206;-54
2022/10/15 02:30:25;;;;;;;37.83;25.93;;;15.70;88.90;;;18.44;62.98;100568.31;5018306;28;20261;-56
2022/10/15 02:32:58;;;;;;;33.83;24.87;;;15.70;88.90;;;18.46;63.16;100563.59;5016564;28;20211;-53
2022/10/15 02:35:27;;;;;;;41.97;29.67;;;15.70;89.10;;;18.46;62.99;100566.25;5032460;28;20190;-54
2022/10/15 02:38:01;;;;;;;39.90;29.03;;;15.70;88.60;;;18.42;62.99;100557.09;5037083;28;20252;-55
2022/10/15 02:40:34;;;;;;;37.03;27.03;;;15.70;88.50;;;18.38;63.06;100563.06;5036241;28;20206;-54
2022/10/15 02:43:07;;;;;;;37.60;25.03;;;15.70;88.20;;;18.36;62.98;100568.66;5036838;28;20245;-55
2022/10/15 02:45:35;;;;;;;38.07;27.73;;;15.70;88.10;;;18.35;63.12;100572.34;5037008;28;20198;-52
2022/10/15 02:48:06;;;;;;;45.40;29.50;;;15.70;88.30;;;18.37;62.99;100572.94;5019572;28;20238;-54
2022/10/15 02:50:33;;;;;;;40.03;27.83;;;15.70;88.50;;;18.40;63.17;100572.47;5024688;28;20213;-53
2022/10/15 02:53:01;;;;;;;43.53;29.23;;;15.60;88.60;;;18.46;62.96;100574.25;5036267;28;20695;-53
2022/10/15 02:55:28;;;;;;;36.40;27.73;;;15.70;88.90;;;18.51;63.04;100565.56;5036804;28;20591;-53
2022/10/15 02:57:56;;;;;;;43.93;30.13;;;15.60;88.80;;;18.56;62.62;100571.03;5036946;28;20198;-53
2022/10/15 03:00:23;;;;;;;40.03;27.80;;;15.70;88.70;;;18.56;62.78;100571.84;5036390;28;20620;-56
2022/10/15 03:02:51;;;;;;;43.40;28.73;;;15.70;88.60;;;18.60;62.83;100567.66;5036859;28;20730;-53
2022/10/15 03:05:19;;;;;;;45.10;29.87;;;15.80;88.70;;;18.66;62.83;100564.06;5021039;28;20245;-53
2022/10/15 03:07:47;;;;;;;44.00;30.43;;;15.80;88.90;;;18.68;62.24;100561.19;5027766;28;20690;-54
2022/10/15 03:10:14;;;;;;;37.97;27.00;;;15.80;88.30;;;18.70;62.46;100573.25;5029125;28;20218;-53
2022/10/15 03:12:41;;;;;;;36.20;27.17;;;15.80;88.30;;;18.74;62.56;100574.41;5016504;28;20641;-53
2022/10/15 03:15:09;;;;;;;38.50;26.23;;;15.90;88.30;;;18.78;62.31;100575.53;5016557;28;20191;-53
2022/10/15 03:17:36;;;;;;;37.03;26.30;;;15.90;88.00;;;18.81;62.14;100572.41;5016639;28;20202;-54
2022/10/15 03:20:05;;;;;;;32.53;23.77;;;15.90;87.90;;;18.83;62.06;100577.50;5016486;28;20214;-54
2022/10/15 03:22:33;;;;;;;39.23;26.23;;;15.90;87.90;;;18.87;61.78;100579.47;5024932;28;20218;-53
2022/10/15 03:25:01;;;;;;;40.77;28.93;;;15.90;87.80;;;18.87;61.63;100579.47;5016996;28;20183;-54
2022/10/15 03:27:28;;;;;;;32.17;24.73;;;16.00;87.50;;;18.89;61.65;100577.41;5016966;28;20198;-54
2022/10/15 03:29:55;;;;;;;36.10;26.60;;;16.00;87.70;;;18.91;61.83;100574.50;5016778;28;20245;-53
2022/10/15 03:32:23;;;;;;;36.13;25.27;;;16.00;87.70;;;18.91;61.69;100582.50;5014963;28;20624;-54
2022/10/15 03:34:50;;;;;;;35.40;26.27;;;16.00;87.00;;;18.90;61.56;100578.19;5016780;28;20199;-54
2022/10/15 03:37:17;;;;;;;38.43;27.07;;;16.00;87.00;;;18.89;61.43;100577.41;5036166;28;20198;-54
2022/10/15 03:39:46;;;;;;;34.43;25.87;;;16.00;87.10;;;18.87;61.25;100576.81;5031657;28;20190;-55
2022/10/15 03:42:14;;;;;;;35.73;25.43;;;16.00;86.60;;;18.85;61.12;100570.91;5027863;28;20234;-54
2022/10/15 03:44:41;;;;;;;29.97;22.20;;;16.00;86.50;;;18.82;61.32;100571.38;5035547;28;20725;-54
2022/10/15 03:47:08;;;;;;;34.97;25.07;;;16.00;86.50;;;18.81;61.43;100568.94;5035725;28;20194;-54
2022/10/15 03:49:36;;;;;;;31.17;23.17;;;16.00;86.50;;;18.83;61.02;100566.84;5035725;28;20218;-54
2022/10/15 03:52:03;;;;;;;29.97;22.73;;;15.90;86.30;;;18.85;60.83;100568.22;5035461;28;20198;-54
2022/10/15 03:54:31;;;;;;;34.63;25.00;;;16.00;86.30;;;18.85;61.01;100565.56;5034819;28;20683;-54
2022/10/15 03:57:00;;;;;;;35.50;25.23;;;16.00;86.20;;;18.82;60.49;100559.91;5029088;28;20187;-56
2022/10/15 03:59:27;;;;;;;34.23;26.03;;;16.00;85.70;;;18.74;60.57;100555.72;5016960;28;20254;-53
2022/10/15 04:01:55;;;;;;;35.17;24.60;;;16.00;85.20;;;18.61;60.56;100553.28;5020240;28;20198;-54
2022/10/15 04:04:22;;;;;;;30.33;22.30;;;15.90;84.80;;;18.52;60.88;100560.00;5034942;28;20652;-54
2022/10/15 04:06:49;;;;;;;36.00;25.27;;;15.90;84.80;;;18.41;60.82;100562.63;5025895;28;20265;-55
2022/10/15 04:09:17;;;;;;;34.23;23.80;;;15.80;84.50;;;18.29;61.07;100562.59;5034542;28;20222;-55
2022/10/15 04:11:44;;;;;;;36.10;25.70;;;15.70;84.60;;;18.22;61.21;100553.91;5027048;28;20199;-54
2022/10/15 04:14:13;;;;;;;37.33;25.47;;;15.70;84.90;;;18.14;61.51;100563.03;5016307;28;20222;-55
2022/10/15 04:16:43;;;;;;;32.03;23.03;;;15.60;85.10;;;18.09;61.67;100559.44;5014735;28;20573;-54
2022/10/15 04:19:10;;;;;;;32.97;25.23;;;15.60;85.30;;;18.05;61.99;100547.59;5014591;28;20704;-55
2022/10/15 04:21:37;;;;;;;39.87;26.53;;;15.50;85.60;;;17.97;62.08;100559.38;5014480;28;20271;-53
2022/10/15 04:24:05;;;;;;;34.83;24.57;;;15.50;85.80;;;17.95;62.06;100563.31;5015221;28;20211;-53
2022/10/15 04:26:35;;;;;;;35.47;24.03;;;15.40;85.90;;;17.89;62.33;100564.25;5015915;28;20724;-55
2022/10/15 04:29:02;;;;;;;34.73;24.50;;;15.40;86.00;;;17.81;62.54;100560.03;5016874;28;20215;-52
2022/10/15 04:31:32;;;;;;;36.33;24.53;;;15.30;86.00;;;17.83;62.33;100557.16;5013551;28;20278;-53
2022/10/15 04:33:59;;;;;;;34.40;24.80;;;15.30;86.10;;;17.87;62.34;100568.97;5033805;28;20214;-52
2022/10/15 04:36:26;;;;;;;33.53;23.30;;;15.30;86.20;;;17.93;62.25;100565.41;5034284;28;20198;-53
2022/10/15 04:38:54;;;;;;;37.30;26.83;;;15.30;86.40;;;17.97;61.95;100561.25;5034339;28;20571;-53
2022/10/15 04:41:21;;;;;;;36.37;24.23;;;15.30;86.50;;;17.98;62.13;100562.88;5033437;28;20194;-53
2022/10/15 04:43:48;;;;;;;40.93;27.97;;;15.30;86.50;;;17.99;62.07;100559.19;5033284;28;20218;-54
2022/10/15 04:46:16;;;;;;;43.67;29.80;;;15.30;86.50;;;17.94;62.36;100561.72;5014525;28;20195;-54
2022/10/15 04:48:44;;;;;;;39.07;27.10;;;15.30;86.70;;;17.84;62.43;100564.91;5014152;28;20257;-54
2022/10/15 04:51:15;;;;;;;38.90;26.97;;;15.30;86.70;;;17.71;62.81;100561.63;5032823;28;20682;-53
2022/10/15 04:53:43;;;;;;;41.87;27.00;;;15.20;86.80;;;17.59;63.16;100570.34;5034136;28;20710;-53
2022/10/15 04:56:14;;;;;;;38.33;26.10;;;15.20;86.90;;;17.52;63.22;100564.31;5033842;28;20252;-53
2022/10/15 04:58:43;;;;;;;35.67;24.87;;;15.10;86.80;;;17.51;63.41;100562.69;5033697;28;20253;-54
2022/10/15 05:01:13;;;;;;;35.07;24.87;;;15.10;87.00;;;17.43;63.31;100559.47;5031283;28;20199;-53
2022/10/15 05:03:43;;;;;;;31.07;20.97;;;15.10;87.60;;;17.49;63.14;100570.06;5017982;28;20285;-55
2022/10/15 05:06:15;;;;;;;32.67;23.57;;;15.00;86.90;;;17.56;62.89;100565.50;5013746;28;20195;-55
2022/10/15 05:08:44;;;;;;;32.17;22.50;;;15.00;86.90;;;17.64;62.77;100563.56;5030661;28;20226;-55
2022/10/15 05:11:15;;;;;;;36.23;26.27;;;15.00;87.00;;;17.68;62.47;100568.22;5032877;28;20194;-53
2022/10/15 05:13:42;;;;;;;30.47;21.77;;;15.00;87.00;;;17.71;62.48;100572.28;5033187;28;20676;-56
2022/10/15 05:16:15;;;;;;;36.10;23.90;;;15.00;86.90;;;17.68;62.28;100568.22;5032743;28;20359;-57
2022/10/15 05:18:46;;;;;;;41.33;27.17;;;15.00;87.00;;;17.64;62.47;100571.56;5032925;28;20202;-55
2022/10/15 05:21:17;;;;;;;42.23;26.40;;;15.00;87.00;;;17.55;62.69;100573.69;5033005;28;20217;-56
2022/10/15 05:23:46;;;;;;;40.30;27.00;;;14.90;87.00;;;17.49;62.95;100575.38;5033203;28;20214;-55
2022/10/15 05:26:19;;;;;;;37.13;25.50;;;15.00;87.10;;;17.46;63.13;100570.50;5013762;28;20273;-56
2022/10/15 05:28:46;;;;;;;39.77;26.30;;;14.90;87.20;;;17.48;63.20;100579.06;5013260;28;20215;-56
2022/10/15 05:31:17;;;;;;;43.23;28.23;;;14.90;87.20;;;17.45;63.32;100574.19;5012746;28;20191;-57
2022/10/15 05:33:45;;;;;;;39.77;27.07;;;14.90;87.50;;;17.43;63.48;100586.91;5013676;28;20269;-57
2022/10/15 05:36:18;;;;;;;44.00;26.30;;;14.90;87.50;;;17.43;63.26;100581.59;5024542;28;20194;-54
2022/10/15 05:38:47;;;;;;;44.37;27.00;;;14.90;87.60;;;17.39;63.68;100580.41;5032812;28;20538;-55
2022/10/15 05:41:15;;;;;;;39.53;27.20;;;14.90;87.80;;;17.37;63.57;100582.50;5032595;28;20605;-56
2022/10/15 05:43:45;;;;;;;46.43;29.97;;;14.90;87.90;;;17.33;63.97;100581.28;5026847;28;20272;-55
2022/10/15 05:46:12;;;;;;;39.43;27.67;;;14.80;88.00;;;17.30;64.16;100592.41;5033740;28;20540;-55
2022/10/15 05:48:39;;;;;;;45.83;29.00;;;14.80;88.10;;;17.29;64.22;100589.94;5032145;28;20288;-53
2022/10/15 05:51:11;;;;;;;46.83;29.43;;;14.80;88.10;;;17.24;64.06;100592.44;5032124;28;20194;-55
2022/10/15 05:53:42;;;;;;;41.43;28.07;;;14.80;88.10;;;17.24;64.21;100585.28;5032833;28;20218;-53
2022/10/15 05:56:09;;;;;;;43.40;29.27;;;14.80;88.10;;;17.24;64.08;100593.28;5032799;28;20194;-54
2022/10/15 05:58:36;;;;;;;48.10;30.53;;;14.80;88.30;;;17.25;64.20;100594.09;5031556;28;20654;-53
2022/10/15 06:01:07;;;;;;;45.67;28.53;;;14.80;88.40;;;17.27;64.05;100592.84;5031463;28;20210;-54
2022/10/15 06:03:35;;;;;;;42.33;28.47;;;14.80;88.50;;;17.32;64.02;100592.16;5033405;28;20221;-53
2022/10/15 06:06:03;;;;;;;44.33;28.23;;;14.80;88.50;;;17.34;64.00;100592.75;5035800;28;20202;-54
2022/10/15 06:08:31;;;;;;;44.33;29.40;;;14.80;88.50;;;17.32;64.09;100590.31;5036828;28;20198;-55
2022/10/15 06:11:03;;;;;;;43.73;29.33;;;14.80;88.30;;;17.27;64.23;100582.19;5036427;28;20198;-54
2022/10/15 06:13:38;;;;;;;52.67;31.13;;;14.80;88.30;;;17.30;64.04;100583.59;5037190;28;20590;-53
2022/10/15 06:16:06;;;;;;;50.33;32.20;;;14.80;88.30;;;17.28;64.02;100589.13;5037047;28;20285;-53
2022/10/15 06:18:34;;;;;;;46.03;29.53;;;14.80;88.30;;;17.24;64.18;100590.59;5034773;28;20698;-55
2022/10/15 06:21:02;;;;;;;44.13;28.73;;;14.80;88.30;;;17.28;64.35;100583.00;5035206;28;20198;-53
2022/10/15 06:23:29;;;;;;;48.20;29.57;;;14.80;88.40;;;17.28;64.25;100585.69;5016668;28;20218;-55
2022/10/15 06:26:02;;;;;;;45.77;29.23;;;14.80;88.30;;;17.26;64.04;100585.06;5016843;28;20187;-53
2022/10/15 06:28:30;;;;;;;45.60;29.37;;;14.80;89.10;;;17.28;64.12;100589.13;5016279;28;20207;-55
2022/10/15 06:30:59;;;;;;;45.87;29.83;;;14.80;88.40;;;17.32;64.19;100594.81;5015139;28;20254;-54
2022/10/15 06:33:27;;;;;;;46.37;30.77;;;14.80;88.60;;;17.33;64.18;100586.63;5015923;28;20215;-55
2022/10/15 06:35:58;;;;;;;47.80;32.67;;;14.80;88.60;;;17.36;64.09;100594.16;5035226;28;20282;-54
2022/10/15 06:38:26;;;;;;;46.37;29.67;;;14.80;88.70;;;17.38;64.12;100589.41;5018773;28;20203;-54
2022/10/15 06:40:53;;;;;;;45.33;30.10;;;14.80;88.70;;;17.44;64.02;100596.53;5019025;28;20202;-53
2022/10/15 06:43:22;;;;;;;48.10;30.57;;;14.80;88.80;;;17.49;64.13;100603.84;5024388;28;20298;-53
2022/10/15 06:45:49;;;;;;;47.37;31.57;;;14.90;88.80;;;17.52;63.84;100600.75;5036038;28;20186;-54
2022/10/15 06:48:17;;;;;;;50.43;30.60;;;14.90;88.70;;;17.57;63.93;100600.91;5035804;28;20675;-54
2022/10/15 06:50:44;;;;;;;47.33;30.73;;;14.90;88.60;;;17.66;63.67;100601.41;5034320;28;20226;-54
2022/10/15 06:53:12;;;;;;;42.83;30.00;;;15.00;88.70;;;17.70;63.54;100598.09;5032655;28;20683;-55
2022/10/15 06:55:39;;;;;;;50.37;31.07;;;15.00;88.50;;;17.78;63.35;100588.97;5027893;28;20198;-54
2022/10/15 06:58:06;;;;;;;46.67;29.97;;;15.10;88.60;;;17.88;63.68;100599.88;5035906;28;20193;-56
2022/10/15 07:00:35;;;;;;;47.13;31.83;;;15.10;88.60;;;17.98;62.87;100602.81;5035362;28;20586;-57
2022/10/15 07:03:03;;;;;;;41.57;29.83;;;15.20;88.60;;;18.00;62.76;100608.72;5035653;28;20579;-57
2022/10/15 07:05:31;;;;;;;45.83;31.43;;;15.20;88.00;;;18.02;62.69;100606.66;5036197;28;20522;-56
2022/10/15 07:07:59;;;;;;;47.73;30.53;;;15.30;87.80;;;18.05;62.65;100608.88;5035563;28;20209;-56
2022/10/15 07:10:27;;;;;;;45.53;32.23;;;15.30;87.60;;;18.11;62.51;100611.44;5031258;28;20211;-56
2022/10/15 07:12:55;;;;;;;45.93;32.23;;;15.30;87.50;;;17.98;62.44;100608.97;5035461;28;20210;-55
2022/10/15 07:15:22;;;;;;;47.00;29.53;;;15.30;87.00;;;17.99;62.59;100615.13;5034094;28;20190;-54
2022/10/15 07:18:00;;;;;;;48.83;31.67;;;15.40;87.10;;;18.00;62.50;100614.06;5035138;28;20195;-56
2022/10/15 07:20:29;;;;;;;45.30;30.17;;;15.40;87.00;;;18.04;62.57;100620.59;5034146;28;20240;-56
2022/10/15 07:22:58;;;;;;;46.90;31.27;;;15.40;87.00;;;18.08;62.43;100616.41;5035350;28;20214;-55
2022/10/15 07:25:26;;;;;;;45.90;30.23;;;15.50;87.00;;;18.09;62.36;100618.06;5035559;28;20512;-54
2022/10/15 07:27:55;;;;;;;42.80;29.03;;;15.50;86.90;;;18.16;62.39;100626.78;5021939;28;20207;-55
2022/10/15 07:30:26;;;;;;;43.13;31.60;;;15.50;87.00;;;18.20;62.38;100625.28;5014684;28;20226;-55
2022/10/15 07:32:56;;;;;;;43.67;30.47;;;15.50;86.80;;;18.23;62.24;100628.28;5014575;28;20522;-54
2022/10/15 07:35:24;;;;;;;45.03;30.67;;;15.60;86.90;;;18.32;61.92;100630.63;5020831;28;20187;-54
2022/10/15 07:37:52;;;;;;;47.27;31.30;;;15.60;86.80;;;18.35;61.83;100630.97;5034746;28;20206;-56
2022/10/15 07:40:20;;;;;;;41.27;30.63;;;15.60;86.30;;;18.37;61.78;100628.91;5034733;28;20202;-54
2022/10/15 07:42:53;;;;;;;44.03;32.23;;;15.70;86.10;;;18.37;61.42;100633.44;5033230;28;20214;-57
2022/10/15 07:45:20;;;;;;;45.57;32.37;;;15.70;85.80;;;18.34;61.71;100637.34;5034985;28;20265;-57
2022/10/15 07:47:47;;;;;;;43.43;30.57;;;15.80;85.80;;;18.32;61.64;100634.13;5036825;28;20618;-53
2022/10/15 07:50:16;;;;;;;46.30;32.20;;;15.70;85.60;;;18.30;61.59;100630.88;5034770;28;20249;-53
2022/10/15 07:52:44;;;;;;;45.70;31.23;;;15.80;85.70;;;18.31;61.70;100631.66;5019098;28;20233;-53
2022/10/15 07:55:12;;;;;;;43.73;31.17;;;15.70;85.70;;;18.26;61.90;100621.69;5034256;28;20194;-54
2022/10/15 07:57:39;;;;;;;41.30;28.60;;;15.70;85.80;;;18.28;61.91;100627.59;5034319;28;20191;-53
2022/10/15 08:00:08;;;;;;;43.63;30.37;;;15.70;85.90;;;18.29;61.88;100623.91;5022598;28;20191;-54
2022/10/15 08:02:36;;;;;;;43.13;29.93;;;15.70;86.00;;;18.34;62.04;100621.38;5016520;28;20227;-56
2022/10/15 08:05:04;;;;;;;42.23;30.03;;;15.70;86.20;;;18.34;62.04;100626.69;5014743;28;20199;-54
2022/10/15 08:07:32;;;;;;;42.53;30.77;;;15.80;86.30;;;18.36;61.92;100621.94;5021848;28;20202;-55
2022/10/15 08:10:00;;;;;;;42.37;28.57;;;15.80;86.20;;;18.37;62.17;100620.91;5033037;28;20229;-56
2022/10/15 08:12:27;;;;;;;41.90;28.40;;;15.80;86.30;;;18.44;61.98;100618.16;5033718;28;20260;-56
2022/10/15 08:14:54;;;;;;;39.43;28.70;;;15.90;86.40;;;18.54;61.79;100621.09;5032444;28;20652;-53
2022/10/15 08:17:22;;;;;;;41.43;28.13;;;15.90;86.40;;;18.63;61.68;100625.06;5013523;28;20191;-55
2022/10/15 08:19:49;;;;;;;39.87;27.50;;;16.00;86.30;;;18.71;61.40;100616.69;5015030;28;20198;-56
2022/10/15 08:22:16;;;;;;;39.60;28.60;;;16.10;86.10;;;18.83;61.26;100614.84;5014047;28;20215;-55
2022/10/15 08:24:45;;;;;;;39.33;26.93;;;16.10;85.90;;;18.92;60.71;100606.28;5015773;28;20200;-55
2022/10/15 08:27:13;;;;;;;39.23;27.80;;;16.20;85.60;;;19.03;61.06;100614.50;5020421;28;20195;-56
2022/10/15 08:29:40;;;;;;;37.03;27.47;;;16.30;85.70;;;19.12;60.86;100608.59;5014047;28;20214;-54
2022/10/15 08:32:07;;;;;;;39.33;28.17;;;16.40;85.70;;;19.26;60.63;100609.16;5014689;28;20637;-55
2022/10/15 08:34:34;;;;;;;39.83;29.37;;;16.50;85.50;;;19.33;60.27;100607.97;5014453;28;20257;-55
2022/10/15 08:37:02;;;;;;;35.17;25.07;;;16.50;84.80;;;19.32;59.72;100610.91;5030835;28;20591;-56
2022/10/15 08:39:30;;;;;;;28.47;21.97;;;16.60;83.70;;;19.42;58.91;100613.81;5033587;28;20190;-54
2022/10/15 08:42:04;;;;;;;31.27;21.73;;;16.70;82.70;;;19.61;58.49;100609.94;5033168;28;20217;-54
2022/10/15 08:44:42;;;;;;;26.87;21.17;;;16.90;82.40;;;19.96;58.38;100615.97;5033512;28;20194;-56
2022/10/15 08:47:25;;;;;;;30.23;22.93;;;17.00;82.80;;;20.53;56.75;100606.03;5031913;28;20240;-56
2022/10/15 08:49:57;;;;;;;28.63;22.17;;;17.30;82.00;;;20.74;55.50;100616.00;5033569;28;20218;-57
2022/10/15 08:52:38;;;;;;;28.50;22.07;;;17.60;79.90;;;20.68;54.59;100619.63;5033448;28;20210;-58
2022/10/15 08:55:08;;;;;;;27.10;20.67;;;17.80;78.10;;;20.73;54.81;100624.25;5024831;28;20249;-56
2022/10/15 08:57:45;;;;;;;25.80;20.90;;;17.90;77.80;;;20.74;54.42;100617.88;5013489;28;20202;-56
2022/10/15 09:00:18;;;;;;;26.70;19.53;;;18.00;77.30;;;20.69;54.25;100629.31;5013746;28;20198;-57
2022/10/15 09:02:56;;;;;;;27.57;20.77;;;18.00;77.00;;;20.68;54.59;100629.56;5025345;28;20594;-57
2022/10/15 09:05:36;;;;;;;26.97;19.47;;;18.00;77.00;;;20.58;54.31;100629.38;5015671;28;20206;-55
2022/10/15 09:08:26;;;;;;;27.47;19.00;;;17.90;76.50;;;20.49;54.24;100633.50;5025267;28;20252;-57
2022/10/15 09:11:01;;;;;;;23.53;18.00;;;17.90;77.00;;;20.44;54.56;100633.44;5032687;28;20229;-56
2022/10/15 09:13:39;;;;;;;22.43;17.93;;;17.90;76.90;;;20.49;54.72;100633.50;5016373;28;20356;-56
2022/10/15 09:16:15;;;;;;;24.53;18.90;;;17.80;76.80;;;20.24;54.84;100624.00;5013812;28;20196;-54
2022/10/15 09:18:48;;;;;;;24.03;18.67;;;17.70;77.10;;;20.19;55.30;100621.19;5013728;28;20207;-55
2022/10/15 09:21:16;;;;;;;22.57;18.23;;;17.60;77.50;;;20.23;55.09;100625.03;5014936;28;20218;-56
2022/10/15 09:23:44;;;;;;;21.50;17.87;;;17.60;77.70;;;20.21;55.79;100624.44;5024908;28;20692;-57
2022/10/15 09:26:25;;;;;;;22.13;17.07;;;17.60;78.10;;;20.28;54.92;100624.31;5033089;28;20289;-56
2022/10/15 09:29:05;;;;;;;22.60;18.03;;;17.50;78.00;;;20.24;55.00;100623.19;5033693;28;20675;-56
2022/10/15 09:31:45;;;;;;;23.83;17.80;;;17.50;77.60;;;20.23;55.10;100627.72;5028719;28;20569;-54
2022/10/15 09:34:26;;;;;;;23.57;17.50;;;17.60;78.10;;;20.29;55.75;100625.13;5013376;28;20215;-54
2022/10/15 09:37:01;;;;;;;21.03;16.67;;;17.60;78.20;;;20.14;54.91;100625.63;5025435;28;20559;-58
2022/10/15 09:39:46;;;;;;;21.27;16.67;;;17.50;77.00;;;19.90;55.34;100630.25;5025765;28;20673;-55
2022/10/15 09:42:29;;;;;;;24.50;17.20;;;17.40;77.20;;;19.86;56.02;100630.97;5032567;28;20210;-54
2022/10/15 09:45:03;;;;;;;22.07;16.53;;;17.40;77.60;;;19.81;56.40;100629.03;5033302;28;20202;-55
2022/10/15 09:47:33;;;;;;;19.33;15.23;;;17.30;78.20;;;19.95;55.75;100625.03;5031014;28;20198;-55
2022/10/15 09:50:03;;;;;;;24.00;16.77;;;17.40;78.70;;;20.01;55.89;100624.09;5015745;28;20582;-57
2022/10/15 09:52:59;;;;;;;22.00;17.50;;;17.40;79.00;;;20.04;56.30;100612.91;5031362;28;20573;-54
2022/10/15 09:55:39;;;;;;;26.50;17.90;;;17.40;79.00;;;20.19;56.24;100618.53;5032951;28;20698;-55
2022/10/15 09:58:16;;;;;;;22.83;17.50;;;17.50;79.20;;;20.33;55.11;100615.56;5033017;28;20201;-57
2022/10/15 10:00:59;;;;;;;23.17;17.13;;;17.50;78.70;;;20.35;54.68;100613.50;5032348;28;20182;-56
2022/10/15 10:03:29;;;;;;;20.37;15.30;;;17.50;78.10;;;20.44;55.41;100617.38;5032964;28;20237;-56
2022/10/15 10:06:05;;;;;;;22.87;17.27;;;17.60;78.30;;;20.67;55.16;100610.00;5024513;28;20199;-54
2022/10/15 10:08:38;;;;;;;21.67;15.60;;;17.70;78.50;;;21.03;54.18;100611.34;5028304;28;20197;-56
2022/10/15 10:11:09;;;;;;;18.10;15.37;;;17.80;78.10;;;21.46;53.19;100594.56;5012171;28;20619;-55
2022/10/15 10:13:43;;;;;;;19.10;15.73;;;18.00;77.50;;;21.96;51.37;100599.72;5013258;28;20219;-58
2022/10/15 10:16:16;;;;;;;19.63;16.87;;;18.20;76.60;;;22.44;49.79;100596.94;5012746;28;20191;-57